Time;durP1;ratioP1;P1;durP2;ratioP2;P2;SDS_P1;SDS_P2;PMS_P1;PMS_P2;Temp;Humidity;BMP_temperature;BMP_pressure;BME280_temperature;BME280_humidity;BME280_pressure;Samples;Min_cycle;Max_cycle;Signal;HPM_P1;HPM_P2
2023/01/04 00:01:14;;;;;;;51.72;30.25;;;6.20;99.90;;;;;;4917071;29;20091;-76
2023/01/04 00:03:40;;;;;;;50.35;29.52;;;6.20;99.90;;;;;;4900154;29;20039;-77
2023/01/04 00:06:09;;;;;;;56.13;30.65;;;6.30;99.90;;;;;;4916175;29;20044;-74
2023/01/04 00:08:35;;;;;;;61.88;31.48;;;6.30;99.90;;;;;;4915424;29;20140;-77
2023/01/04 00:11:03;;;;;;;64.97;35.15;;;6.40;99.90;;;;;;4916549;29;20156;-77
2023/01/04 00:13:30;;;;;;;57.25;33.92;;;6.40;99.90;;;;;;4916460;29;20024;-73
2023/01/04 00:15:56;;;;;;;67.82;37.78;;;6.30;99.90;;;;;;4916642;29;20527;-76
2023/01/04 00:18:22;;;;;;;95.75;43.75;;;6.30;99.90;;;;;;4915598;29;20028;-77
2023/01/04 00:20:48;;;;;;;77.22;36.92;;;6.20;99.90;;;;;;4913166;29;20043;-76
2023/01/04 00:23:14;;;;;;;71.60;38.33;;;6.20;99.90;;;;;;4912917;29;20036;-73
2023/01/04 00:25:40;;;;;;;83.25;37.00;;;6.10;99.90;;;;;;4914629;29;20027;-72
2023/01/04 00:28:06;;;;;;;63.28;34.08;;;6.10;99.90;;;;;;4916251;29;20392;-73
2023/01/04 00:30:32;;;;;;;66.93;34.22;;;6.10;99.90;;;;;;4916046;29;20487;-72
2023/01/04 00:32:58;;;;;;;68.60;36.63;;;6.20;99.90;;;;;;4916088;29;20032;-77
2023/01/04 00:35:24;;;;;;;63.00;34.38;;;6.30;99.90;;;;;;4916425;29;20068;-76
2023/01/04 00:37:50;;;;;;;69.97;39.05;;;6.20;99.90;;;;;;4915888;29;20059;-73
2023/01/04 00:40:16;;;;;;;67.93;36.63;;;6.20;99.90;;;;;;4916395;29;20032;-78
2023/01/04 00:42:42;;;;;;;70.53;39.80;;;6.20;99.90;;;;;;4915426;29;20043;-76
2023/01/04 00:45:08;;;;;;;75.50;39.25;;;6.20;99.90;;;;;;4915920;29;20048;-76
2023/01/04 00:47:34;;;;;;;69.10;36.50;;;6.20;99.90;;;;;;4912812;29;20024;-75
2023/01/04 00:50:00;;;;;;;71.30;41.60;;;6.30;99.90;;;;;;4916292;29;20490;-77
2023/01/04 00:52:26;;;;;;;73.43;40.90;;;6.40;99.90;;;;;;4915914;29;20024;-78
2023/01/04 00:54:51;;;;;;;81.60;41.65;;;6.40;99.90;;;;;;4915711;29;20036;-78
2023/01/04 00:57:17;;;;;;;86.60;42.05;;;6.40;99.90;;;;;;4915964;29;20028;-73
2023/01/04 00:59:43;;;;;;;79.15;43.08;;;6.40;99.90;;;;;;4915541;29;20107;-75
2023/01/04 01:02:09;;;;;;;76.88;42.72;;;6.40;99.90;;;;;;4915008;29;20071;-75
2023/01/04 01:04:35;;;;;;;83.45;43.70;;;6.40;99.90;;;;;;4915738;29;20165;-76
2023/01/04 01:07:01;;;;;;;69.63;43.13;;;6.40;99.90;;;;;;4915594;29;20048;-73
2023/01/04 01:09:27;;;;;;;70.22;42.05;;;6.40;99.90;;;;;;4915741;29;20035;-76
2023/01/04 01:11:53;;;;;;;127.80;51.13;;;6.40;99.90;;;;;;4916022;29;20032;-78
2023/01/04 01:14:22;;;;;;;136.65;53.25;;;6.30;99.90;;;;;;4915395;29;20094;-77
2023/01/04 01:16:48;;;;;;;84.07;43.83;;;6.30;99.90;;;;;;4916956;29;20383;-74
2023/01/04 01:19:14;;;;;;;93.50;44.65;;;6.20;99.90;;;;;;4923172;29;20159;-76
2023/01/04 01:21:40;;;;;;;74.53;39.75;;;6.20;99.90;;;;;;4915587;29;20028;-76
2023/01/04 01:24:08;;;;;;;86.25;38.25;;;6.10;99.90;;;;;;4915539;29;20379;-73
2023/01/04 01:26:33;;;;;;;67.10;37.53;;;6.10;99.90;;;;;;4915631;29;20111;-77
2023/01/04 01:28:59;;;;;;;68.85;35.65;;;6.00;99.90;;;;;;4915792;29;20569;-77
2023/01/04 01:31:27;;;;;;;70.22;36.47;;;6.00;99.90;;;;;;4915633;29;20024;-78
2023/01/04 01:33:55;;;;;;;84.13;39.50;;;6.00;99.90;;;;;;4915446;29;20028;-72
2023/01/04 01:36:23;;;;;;;65.05;35.28;;;5.90;99.90;;;;;;4915446;29;20488;-78
2023/01/04 01:38:49;;;;;;;75.40;36.58;;;6.00;99.90;;;;;;4915601;29;20068;-73
2023/01/04 01:41:26;;;;;;;58.97;36.55;;;6.00;99.90;;;;;;4915097;29;20107;-73
2023/01/04 01:43:59;;;;;;;76.95;39.10;;;6.10;99.90;;;;;;4914783;29;20115;-78
2023/01/04 01:46:27;;;;;;;;;;;6.00;99.90;;;;;;4915895;29;20016;-76
2023/01/04 01:48:59;;;;;;;108.45;41.28;;;6.10;99.90;;;;;;4915404;29;20462;-77
2023/01/04 01:51:27;;;;;;;84.00;41.13;;;6.00;99.90;;;;;;4914905;29;20123;-77
2023/01/04 01:54:05;;;;;;;65.60;35.85;;;6.00;99.90;;;;;;4915194;29;20107;-73
2023/01/04 01:56:35;;;;;;;67.93;37.85;;;6.00;99.90;;;;;;4913356;29;20028;-75
2023/01/04 01:59:02;;;;;;;69.03;36.70;;;6.10;99.90;;;;;;4915363;29;20028;-76
2023/01/04 02:01:28;;;;;;;83.53;38.65;;;5.90;99.90;;;;;;4914250;29;20024;-73
2023/01/04 02:03:54;;;;;;;71.38;36.40;;;6.00;99.90;;;;;;4915414;29;20552;-76
2023/01/04 02:06:28;;;;;;;67.32;36.45;;;6.10;99.90;;;;;;4914884;29;20047;-72
2023/01/04 02:08:54;;;;;;;69.10;38.10;;;6.20;99.90;;;;;;4914504;29;20092;-77
2023/01/04 02:11:20;;;;;;;77.18;38.50;;;6.20;99.90;;;;;;4905813;29;20035;-77
2023/01/04 02:16:36;;;;;;;76.97;42.13;;;6.20;99.90;;;;;;4918699;29;20076;-77
2023/01/04 02:19:17;;;;;;;76.78;44.00;;;6.20;99.90;;;;;;4918310;29;20380;-75
2023/01/04 02:21:56;;;;;;;89.97;48.30;;;6.30;99.90;;;;;;4918016;29;20039;-76
2023/01/04 02:24:56;;;;;;;83.43;50.30;;;6.30;99.90;;;;;;4918375;29;20127;-77
2023/01/04 02:27:54;;;;;;;91.00;49.33;;;6.20;99.90;;;;;;4917193;29;20051;-77
2023/01/04 02:30:44;;;;;;;108.43;51.63;;;6.10;99.90;;;;;;4918553;29;20074;-72
2023/01/04 02:33:22;;;;;;;128.90;57.55;;;6.10;99.90;;;;;;4917204;29;20040;-76
2023/01/04 02:36:09;;;;;;;98.25;50.50;;;6.00;99.90;;;;;;4918517;29;20111;-76
2023/01/04 02:38:50;;;;;;;88.30;49.85;;;5.90;99.90;;;;;;4906492;29;20393;-75
2023/01/04 02:41:34;;;;;;;84.95;44.85;;;6.00;99.90;;;;;;4918307;29;20492;-76
2023/01/04 02:50:29;;;;;;;95.18;54.08;;;6.00;99.90;;;;;;4910017;29;20028;-72
2023/01/04 02:50:31;;;;;;;86.60;49.83;;;5.90;99.90;;;;;;4917705;29;20020;-73
2023/01/04 02:53:09;;;;;;;86.70;51.47;;;5.80;99.90;;;;;;4917438;29;20104;-77
2023/01/04 02:55:47;;;;;;;79.35;44.88;;;5.70;99.90;;;;;;4917491;29;20095;-76
2023/01/04 02:58:39;;;;;;;75.65;45.95;;;5.70;99.90;;;;;;4917792;29;20028;-75
2023/01/04 03:07:57;;;;;;;74.50;41.70;;;5.70;99.90;;;;;;4916624;29;20088;-76
2023/01/04 03:10:48;;;;;;;67.28;41.63;;;5.70;99.90;;;;;;4911897;29;20111;-73
2023/01/04 03:13:36;;;;;;;62.95;39.58;;;5.70;99.90;;;;;;4910836;29;20107;-74
2023/01/04 03:16:10;;;;;;;62.17;40.33;;;5.70;99.90;;;;;;4910282;29;20031;-76
2023/01/04 03:18:41;;;;;;;60.67;38.63;;;5.70;99.90;;;;;;4912499;29;20032;-72
2023/01/04 03:21:10;;;;;;;60.97;38.05;;;5.80;99.90;;;;;;4912037;29;20530;-77
2023/01/04 03:35:44;;;;;;;78.03;49.15;;;5.70;99.90;;;;;;4906011;29;20036;-77
2023/01/04 03:50:37;;;;;;;56.50;35.88;;;5.50;99.90;;;;;;4916682;29;20028;-76
2023/01/04 03:53:06;;;;;;;53.83;33.35;;;5.60;99.90;;;;;;4916537;29;20027;-74
2023/01/04 03:55:34;;;;;;;51.67;35.92;;;5.60;99.90;;;;;;4917270;29;20028;-76
2023/01/04 03:58:00;;;;;;;50.13;34.47;;;5.60;99.90;;;;;;4917152;29;20067;-73
2023/01/04 04:00:27;;;;;;;50.90;34.10;;;5.60;99.90;;;;;;4916915;29;20447;-73
2023/01/04 04:02:53;;;;;;;50.30;31.50;;;5.60;99.90;;;;;;4916485;29;20075;-75
2023/01/04 04:10:53;;;;;;;43.88;31.75;;;5.70;99.90;;;;;;4916779;29;20103;-74
2023/01/04 04:13:19;;;;;;;47.88;32.70;;;5.70;99.90;;;;;;4915808;29;20035;-74
2023/01/04 04:15:45;;;;;;;47.15;32.05;;;5.70;99.90;;;;;;4916579;29;20488;-78
2023/01/04 04:18:10;;;;;;;49.30;31.95;;;5.60;99.90;;;;;;4916423;29;20056;-72
2023/01/04 04:20:36;;;;;;;52.90;34.03;;;5.60;99.90;;;;;;4916637;29;20024;-77
2023/01/04 04:23:02;;;;;;;51.03;34.60;;;5.60;99.90;;;;;;4916528;29;20040;-77
2023/01/04 04:25:28;;;;;;;50.45;31.98;;;5.50;99.90;;;;;;4916291;29;20047;-77
2023/01/04 04:27:54;;;;;;;50.13;33.75;;;5.60;99.90;;;;;;4916383;29;20499;-77
2023/01/04 04:30:20;;;;;;;54.03;32.65;;;5.60;99.90;;;;;;4916435;29;20028;-78
2023/01/04 04:32:45;;;;;;;50.75;33.63;;;5.60;99.90;;;;;;4916474;29;20103;-77
2023/01/04 04:35:11;;;;;;;46.53;32.75;;;5.60;99.90;;;;;;4915977;29;20071;-72
2023/01/04 04:37:37;;;;;;;50.83;32.75;;;5.60;99.90;;;;;;4916090;29;20123;-76
2023/01/04 04:40:05;;;;;;;51.78;37.03;;;5.70;99.90;;;;;;4916241;29;20136;-74
2023/01/04 04:42:30;;;;;;;52.88;36.72;;;5.70;99.90;;;;;;4916135;29;20067;-77
2023/01/04 04:44:56;;;;;;;45.38;31.83;;;5.80;99.90;;;;;;4916044;29;20115;-78
2023/01/04 04:47:22;;;;;;;47.83;32.45;;;5.80;99.90;;;;;;4916338;29;20400;-73
2023/01/04 04:49:48;;;;;;;46.75;31.90;;;5.80;99.90;;;;;;4915931;29;20087;-74
2023/01/04 04:52:14;;;;;;;61.97;38.67;;;5.70;99.90;;;;;;4916116;29;20035;-78
2023/01/04 04:54:39;;;;;;;56.45;40.20;;;5.70;99.90;;;;;;4915800;29;20024;-78
2023/01/04 04:57:05;;;;;;;58.15;38.60;;;5.70;99.90;;;;;;4916335;29;20025;-78
2023/01/04 04:59:31;;;;;;;50.30;32.80;;;5.70;99.90;;;;;;4915708;29;20472;-78
2023/01/04 05:01:57;;;;;;;49.80;33.03;;;5.70;99.90;;;;;;4916007;29;20091;-78
2023/01/04 05:04:23;;;;;;;41.33;29.75;;;5.80;99.90;;;;;;4910760;29;20046;-74
2023/01/04 05:06:49;;;;;;;44.58;31.50;;;5.80;99.90;;;;;;4915322;29;20079;-74
2023/01/04 05:09:15;;;;;;;52.35;36.45;;;5.90;99.90;;;;;;4915772;29;20087;-78
2023/01/04 05:14:27;;;;;;;43.53;30.88;;;5.90;99.90;;;;;;4915698;29;20472;-75
2023/01/04 05:16:53;;;;;;;37.28;27.55;;;6.00;99.90;;;;;;4915126;29;20031;-78
2023/01/04 05:19:18;;;;;;;46.92;31.38;;;6.00;99.90;;;;;;4915853;29;20111;-77
2023/01/04 05:21:44;;;;;;;56.65;36.25;;;6.10;99.90;;;;;;4915614;29;20487;-76
2023/01/04 05:24:11;;;;;;;58.15;40.90;;;6.00;99.90;;;;;;4915396;29;20024;-76
2023/01/04 05:26:38;;;;;;;59.80;38.50;;;6.00;99.90;;;;;;4915634;29;20024;-76
2023/01/04 05:29:04;;;;;;;65.07;42.78;;;6.00;99.90;;;;;;4915541;29;20025;-74
2023/01/04 05:31:29;;;;;;;68.57;46.95;;;6.10;99.90;;;;;;4915633;29;20027;-78
2023/01/04 05:33:55;;;;;;;67.60;44.67;;;6.10;99.90;;;;;;4915488;29;20055;-74
2023/01/04 05:36:21;;;;;;;68.35;44.22;;;6.20;99.90;;;;;;4914898;29;20147;-75
2023/01/04 05:38:47;;;;;;;60.10;42.00;;;6.20;99.90;;;;;;4915244;29;20036;-75
2023/01/04 05:43:57;;;;;;;45.53;30.10;;;6.20;99.90;;;;;;4915401;29;20040;-78
2023/01/04 05:46:23;;;;;;;37.70;28.60;;;6.10;99.90;;;;;;4915238;29;20027;-77
2023/01/04 05:48:49;;;;;;;44.55;29.48;;;6.10;99.90;;;;;;4916610;29;20036;-77
2023/01/04 05:51:15;;;;;;;40.38;27.42;;;6.20;99.90;;;;;;4918502;29;20028;-73
2023/01/04 05:53:40;;;;;;;45.55;29.98;;;6.30;99.90;;;;;;4919230;29;20039;-74
2023/01/04 05:56:06;;;;;;;46.78;29.85;;;6.30;99.90;;;;;;4918868;29;20032;-77
2023/01/04 05:58:32;;;;;;;40.28;28.05;;;6.30;99.90;;;;;;4918477;29;20036;-78
2023/01/04 06:00:58;;;;;;;41.42;29.63;;;6.30;99.90;;;;;;4918577;29;20942;-75
2023/01/04 06:03:24;;;;;;;43.35;28.17;;;6.30;99.90;;;;;;4918790;29;20032;-76
2023/01/04 06:05:50;;;;;;;52.58;35.15;;;6.30;99.90;;;;;;4918399;29;20060;-76
2023/01/04 06:08:16;;;;;;;54.08;37.05;;;6.30;99.90;;;;;;4918552;29;20127;-74
2023/01/04 06:10:42;;;;;;;49.13;35.22;;;6.30;99.90;;;;;;4918273;29;20429;-78
2023/01/04 06:13:08;;;;;;;44.30;32.90;;;6.30;99.90;;;;;;4918491;29;20035;-76
2023/01/04 06:15:34;;;;;;;46.67;33.03;;;6.30;99.90;;;;;;4918726;29;20084;-78
2023/01/04 06:18:00;;;;;;;45.05;33.97;;;6.30;99.90;;;;;;4918496;29;20024;-77
2023/01/04 06:20:26;;;;;;;44.75;32.55;;;6.30;99.90;;;;;;4917872;29;20028;-77
2023/01/04 06:22:51;;;;;;;50.72;35.15;;;6.40;99.90;;;;;;4918625;29;20024;-78
2023/01/04 06:25:17;;;;;;;44.78;34.63;;;6.40;99.90;;;;;;4918255;29;20084;-78
2023/01/04 06:27:43;;;;;;;46.25;32.45;;;6.50;99.90;;;;;;4918612;29;20028;-77
2023/01/04 06:30:09;;;;;;;46.40;32.20;;;6.50;99.90;;;;;;4918401;29;20091;-77
2023/01/04 06:32:35;;;;;;;44.13;32.42;;;6.60;99.90;;;;;;4918313;29;20028;-74
2023/01/04 06:35:01;;;;;;;42.88;31.30;;;6.50;99.90;;;;;;4917849;29;20469;-75
2023/01/04 06:37:27;;;;;;;42.47;30.17;;;6.60;99.90;;;;;;4918351;29;20038;-77
2023/01/04 06:39:53;;;;;;;45.58;31.15;;;6.60;99.90;;;;;;4917434;29;20026;-74
2023/01/04 06:45:04;;;;;;;51.47;34.13;;;6.70;99.90;;;;;;4918059;29;20048;-78
2023/01/04 06:47:30;;;;;;;54.17;35.17;;;6.70;99.90;;;;;;4918563;29;20111;-77
2023/01/04 06:49:56;;;;;;;53.63;36.83;;;6.70;99.90;;;;;;4917880;29;20107;-77
2023/01/04 06:52:21;;;;;;;55.47;38.70;;;6.80;99.90;;;;;;4917855;29;20028;-73
2023/01/04 06:54:47;;;;;;;59.55;40.53;;;6.80;99.90;;;;;;4918481;29;20024;-74
2023/01/04 06:57:13;;;;;;;63.17;39.92;;;6.80;99.90;;;;;;4917992;29;20456;-78
2023/01/04 06:59:39;;;;;;;63.05;42.53;;;6.90;99.90;;;;;;4918336;29;20057;-74
2023/01/04 07:02:05;;;;;;;64.78;40.97;;;6.90;99.90;;;;;;4917831;29;20492;-75
2023/01/04 07:04:31;;;;;;;59.15;37.92;;;6.90;99.90;;;;;;4917858;29;20052;-75
2023/01/04 07:06:57;;;;;;;51.08;36.55;;;6.90;99.90;;;;;;4900110;29;20059;-77
2023/01/04 07:09:22;;;;;;;59.05;36.97;;;6.90;99.90;;;;;;4917643;29;20039;-76
2023/01/04 07:11:48;;;;;;;53.47;36.72;;;6.90;99.90;;;;;;4917975;29;20033;-74
2023/01/04 07:14:14;;;;;;;51.10;33.70;;;7.00;99.90;;;;;;4917507;29;20028;-73
2023/01/04 07:16:40;;;;;;;48.78;35.20;;;7.00;99.90;;;;;;4917808;29;20028;-77
2023/01/04 07:19:07;;;;;;;51.30;34.58;;;7.00;99.90;;;;;;4917521;29;20036;-77
2023/01/04 07:21:33;;;;;;;49.03;34.58;;;7.00;99.90;;;;;;4917520;29;20142;-78
2023/01/04 07:23:59;;;;;;;46.80;32.58;;;7.10;99.90;;;;;;4916785;29;20032;-74
2023/01/04 07:26:25;;;;;;;46.67;34.95;;;7.00;99.90;;;;;;4916973;29;20503;-76
2023/01/04 07:31:35;;;;;;;50.17;36.63;;;7.00;99.90;;;;;;4917693;29;20099;-77
2023/01/04 07:34:01;;;;;;;49.10;35.42;;;7.10;99.90;;;;;;4916860;29;20111;-76
2023/01/04 07:36:26;;;;;;;54.65;37.17;;;7.10;99.90;;;;;;4917432;29;20376;-74
2023/01/04 07:38:52;;;;;;;54.70;38.22;;;7.20;99.90;;;;;;4917529;29;20028;-77
2023/01/04 07:41:18;;;;;;;58.22;42.13;;;7.20;99.90;;;;;;4916710;29;20357;-77
2023/01/04 07:43:45;;;;;;;56.58;42.65;;;7.30;99.90;;;;;;4917081;29;20042;-73
2023/01/04 07:46:11;;;;;;;59.95;40.75;;;7.30;99.90;;;;;;4917177;29;20035;-75
2023/01/04 07:48:36;;;;;;;69.18;46.50;;;7.40;99.90;;;;;;4917105;29;20024;-78
2023/01/04 07:51:02;;;;;;;77.78;52.10;;;7.40;99.90;;;;;;4916843;29;20028;-78
2023/01/04 07:53:30;;;;;;;71.13;51.90;;;7.50;99.90;;;;;;4917127;29;20070;-78
2023/01/04 07:55:58;;;;;;;65.50;47.30;;;7.60;99.90;;;;;;4916271;29;20372;-78
2023/01/04 07:58:24;;;;;;;63.70;45.88;;;7.60;99.90;;;;;;4917226;29;20035;-78
2023/01/04 08:00:50;;;;;;;63.03;42.63;;;7.70;99.90;;;;;;4916973;29;20044;-74
2023/01/04 08:03:16;;;;;;;54.95;39.58;;;7.70;99.90;;;;;;4916605;29;20111;-74
2023/01/04 08:05:42;;;;;;;55.50;41.15;;;7.70;99.90;;;;;;4916834;29;20032;-77
2023/01/04 08:08:09;;;;;;;52.85;38.17;;;7.90;99.90;;;;;;4916351;29;20036;-74
2023/01/04 08:10:35;;;;;;;57.83;38.10;;;7.90;99.90;;;;;;4915955;29;20036;-77
2023/01/04 08:13:00;;;;;;;53.33;38.08;;;8.00;99.90;;;;;;4916162;29;20028;-76
2023/01/04 08:15:26;;;;;;;58.75;39.50;;;8.00;99.90;;;;;;4916319;29;20035;-74
2023/01/04 08:17:54;;;;;;;53.85;35.83;;;8.00;99.90;;;;;;4916725;29;20389;-78
2023/01/04 08:20:20;;;;;;;50.65;34.67;;;8.10;99.90;;;;;;4915444;29;20115;-74
2023/01/04 08:22:46;;;;;;;48.80;33.67;;;8.10;99.90;;;;;;4917698;29;20120;-77
2023/01/04 08:25:11;;;;;;;47.15;32.30;;;8.10;99.90;;;;;;4916172;29;20036;-75
2023/01/04 08:27:37;;;;;;;45.35;33.42;;;8.20;99.90;;;;;;4915539;29;20024;-77
2023/01/04 08:30:04;;;;;;;43.92;32.17;;;8.20;99.90;;;;;;4915345;29;20107;-77
2023/01/04 08:32:30;;;;;;;50.63;35.85;;;8.30;99.90;;;;;;4916309;29;20020;-78
2023/01/04 08:34:56;;;;;;;45.08;31.15;;;8.20;99.90;;;;;;4915577;29;20042;-77
2023/01/04 08:37:21;;;;;;;47.00;32.25;;;8.30;99.90;;;;;;4916050;29;20111;-74
2023/01/04 08:39:47;;;;;;;43.30;30.52;;;8.30;99.90;;;;;;4915973;29;20491;-74
2023/01/04 08:42:14;;;;;;;46.80;29.80;;;8.40;99.90;;;;;;4915332;29;20062;-74
2023/01/04 08:44:39;;;;;;;41.83;27.90;;;8.50;99.90;;;;;;4913353;29;20463;-77
2023/01/04 08:47:05;;;;;;;42.80;29.08;;;8.50;99.90;;;;;;4914637;29;20115;-76
2023/01/04 08:49:31;;;;;;;42.70;29.20;;;8.60;99.90;;;;;;4915698;29;20526;-75
2023/01/04 08:51:58;;;;;;;44.42;30.85;;;8.60;99.90;;;;;;4910248;29;20456;-74
2023/01/04 08:54:24;;;;;;;42.88;29.10;;;8.70;99.90;;;;;;4916188;29;20114;-75
2023/01/04 08:56:50;;;;;;;44.40;30.33;;;8.70;99.90;;;;;;4915762;29;20083;-74
2023/01/04 08:59:16;;;;;;;46.50;31.27;;;8.80;99.90;;;;;;4914683;29;20036;-76
2023/01/04 09:01:42;;;;;;;39.72;29.02;;;8.80;99.90;;;;;;4915871;29;20020;-76
2023/01/04 09:04:07;;;;;;;44.95;29.88;;;8.90;99.90;;;;;;4916041;29;20391;-75
2023/01/04 09:06:35;;;;;;;44.30;29.23;;;8.90;99.90;;;;;;4914954;29;20488;-73
2023/01/04 09:09:00;;;;;;;48.10;30.88;;;9.00;99.90;;;;;;4915752;29;20040;-75
2023/01/04 09:11:26;;;;;;;41.75;28.58;;;9.00;99.90;;;;;;4915601;29;20039;-75
2023/01/04 09:13:58;;;;;;;41.92;28.02;;;9.00;99.90;;;;;;4915916;29;20032;-76
2023/01/04 09:16:24;;;;;;;39.03;27.45;;;9.10;99.90;;;;;;4915507;29;20048;-74
2023/01/04 09:18:49;;;;;;;41.90;27.73;;;9.20;99.90;;;;;;4915814;29;20028;-73
2023/01/04 09:21:18;;;;;;;42.92;28.20;;;9.40;99.90;;;;;;4915890;29;20388;-74
2023/01/04 09:23:45;;;;;;;38.30;24.85;;;9.40;99.90;;;;;;4914607;29;20103;-74
2023/01/04 09:26:14;;;;;;;37.33;25.75;;;9.40;99.90;;;;;;4915870;29;20036;-74
2023/01/04 09:28:40;;;;;;;36.13;24.02;;;9.40;99.90;;;;;;4914837;29;20031;-76
2023/01/04 09:31:14;;;;;;;35.78;24.67;;;9.40;99.90;;;;;;4915864;29;20024;-73
2023/01/04 09:33:41;;;;;;;34.75;25.23;;;9.50;99.90;;;;;;4915607;29;20024;-75
2023/01/04 09:36:09;;;;;;;34.60;23.95;;;9.50;99.90;;;;;;4915544;29;20028;-76
2023/01/04 09:38:35;;;;;;;35.30;22.63;;;9.60;99.90;;;;;;4915081;29;20457;-75
2023/01/04 09:41:13;;;;;;;36.25;23.13;;;9.60;99.90;;;;;;4914939;29;20028;-75
2023/01/04 09:43:44;;;;;;;31.63;21.88;;;9.60;99.90;;;;;;4904864;29;20357;-76
2023/01/04 09:46:33;;;;;;;32.92;22.88;;;9.70;99.90;;;;;;4915236;29;20025;-74
2023/01/04 09:49:33;;;;;;;29.98;20.92;;;9.80;99.90;;;;;;4915639;29;20564;-75
2023/01/04 09:52:02;;;;;;;30.27;18.65;;;9.90;99.90;;;;;;4914821;29;20032;-76
2023/01/04 09:54:41;;;;;;;27.98;19.95;;;9.80;99.90;;;;;;4914628;29;20405;-74
2023/01/04 09:57:17;;;;;;;30.33;20.27;;;9.70;99.90;;;;;;4912695;29;20032;-76
2023/01/04 09:59:45;;;;;;;33.65;22.33;;;9.70;99.90;;;;;;4914885;29;20476;-76
2023/01/04 10:02:17;;;;;;;29.42;20.05;;;9.60;99.90;;;;;;4914394;29;20016;-76
2023/01/04 10:04:45;;;;;;;29.50;20.48;;;9.60;99.90;;;;;;4907804;29;20134;-74
2023/01/04 10:07:27;;;;;;;30.45;19.52;;;9.70;99.90;;;;;;4901959;29;20051;-76
2023/01/04 10:09:54;;;;;;;31.92;21.00;;;9.80;99.90;;;;;;4896306;29;20507;-74
2023/01/04 10:12:34;;;;;;;31.23;20.83;;;9.90;99.90;;;;;;4896068;29;20025;-76
2023/01/04 10:15:25;;;;;;;31.40;19.30;;;9.90;99.90;;;;;;4891963;29;20028;-75
2023/01/04 10:18:07;;;;;;;29.13;19.48;;;9.90;99.90;;;;;;4884704;29;20031;-76
2023/01/04 10:20:42;;;;;;;27.90;18.77;;;9.90;99.90;;;;;;4896142;29;20092;-75
2023/01/04 10:23:26;;;;;;;28.70;19.30;;;9.80;99.90;;;;;;4895778;29;20544;-77
2023/01/04 10:26:00;;;;;;;31.50;20.33;;;9.80;99.90;;;;;;4896606;29;20076;-74
2023/01/04 10:28:41;;;;;;;29.63;18.92;;;10.00;99.90;;;;;;4896097;29;20084;-74
2023/01/04 10:31:18;;;;;;;27.38;16.90;;;10.10;99.90;;;;;;4906276;29;20029;-74
2023/01/04 10:33:56;;;;;;;23.77;17.10;;;10.10;99.90;;;;;;4896753;29;20445;-74
2023/01/04 10:36:27;;;;;;;30.08;18.75;;;10.20;99.90;;;;;;4899478;29;20027;-77
2023/01/04 10:39:22;;;;;;;27.75;17.60;;;10.40;99.90;;;;;;4899109;29;20392;-77
2023/01/04 10:41:56;;;;;;;28.77;17.23;;;10.40;99.90;;;;;;4898867;29;20092;-77
2023/01/04 10:44:46;;;;;;;28.10;17.67;;;10.50;99.90;;;;;;4894983;29;20100;-77
2023/01/04 10:47:21;;;;;;;29.45;17.67;;;10.60;99.90;;;;;;4894923;29;20024;-77
2023/01/04 10:49:56;;;;;;;24.42;15.27;;;10.70;99.90;;;;;;4899924;29;20116;-74
2023/01/04 10:52:42;;;;;;;24.88;14.55;;;10.70;99.90;;;;;;4898461;29;20024;-77
2023/01/04 10:55:56;;;;;;;25.73;17.13;;;10.80;99.90;;;;;;4898676;29;20052;-76
2023/01/04 10:58:47;;;;;;;27.13;16.08;;;10.80;99.90;;;;;;4842129;29;20514;-77
2023/01/04 11:01:29;;;;;;;24.67;15.85;;;10.90;99.90;;;;;;4852908;29;20077;-77
2023/01/04 11:04:07;;;;;;;21.77;13.35;;;11.00;99.90;;;;;;4851473;29;20086;-73
2023/01/04 11:06:45;;;;;;;22.40;14.35;;;11.20;99.90;;;;;;4860778;29;20049;-75
2023/01/04 11:09:29;;;;;;;28.58;14.77;;;11.10;99.90;;;;;;4873709;29;20530;-76
2023/01/04 11:11:56;;;;;;;26.75;15.98;;;11.20;99.90;;;;;;4870944;29;20146;-74
2023/01/04 11:14:24;;;;;;;22.15;16.25;;;11.20;99.90;;;;;;4878192;29;20123;-74
2023/01/04 11:16:55;;;;;;;23.30;15.23;;;11.30;99.90;;;;;;4878179;29;20045;-74
2023/01/04 11:19:21;;;;;;;22.45;14.95;;;11.20;99.90;;;;;;4877190;29;20074;-75
2023/01/04 11:21:57;;;;;;;21.30;14.05;;;11.30;99.90;;;;;;4870780;29;20516;-75
2023/01/04 11:24:25;;;;;;;20.83;13.82;;;11.20;99.90;;;;;;4876291;29;20501;-75
2023/01/04 11:26:51;;;;;;;24.52;13.77;;;11.30;99.90;;;;;;4877360;29;20017;-74
2023/01/04 11:29:33;;;;;;;27.00;16.13;;;11.40;99.90;;;;;;4868621;29;20084;-77
2023/01/04 11:32:05;;;;;;;25.77;15.63;;;11.30;99.90;;;;;;4876409;29;20525;-75
2023/01/04 11:34:43;;;;;;;22.90;14.63;;;11.20;99.90;;;;;;4898646;29;20040;-75
2023/01/04 11:37:23;;;;;;;21.02;14.10;;;11.10;99.90;;;;;;4917164;29;20028;-75
2023/01/04 11:39:49;;;;;;;25.83;16.17;;;11.00;99.90;;;;;;4917186;29;20087;-75
2023/01/04 11:42:21;;;;;;;23.42;14.30;;;10.90;99.90;;;;;;4900146;29;20428;-74
2023/01/04 11:45:00;;;;;;;21.67;14.57;;;10.70;99.90;;;;;;4916633;29;20476;-75
2023/01/04 11:47:29;;;;;;;22.20;13.05;;;10.80;99.90;;;;;;4909398;29;20278;-75
2023/01/04 11:49:55;;;;;;;26.75;14.90;;;10.80;99.90;;;;;;4927347;29;20076;-74
2023/01/04 11:52:33;;;;;;;24.17;15.02;;;10.70;99.90;;;;;;4916934;29;20040;-75
2023/01/04 11:55:23;;;;;;;33.83;23.67;;;10.70;99.90;;;;;;4916589;29;20072;-76
2023/01/04 11:58:11;;;;;;;27.35;19.48;;;10.80;99.90;;;;;;4916858;29;20043;-74
2023/01/04 12:00:48;;;;;;;24.33;15.30;;;11.00;99.90;;;;;;4913705;29;20040;-75
2023/01/04 12:03:17;;;;;;;22.08;13.05;;;11.20;99.90;;;;;;4916502;29;20480;-75
2023/01/04 12:05:43;;;;;;;20.88;14.73;;;11.20;99.90;;;;;;4914315;29;20063;-75
2023/01/04 12:08:21;;;;;;;23.98;15.88;;;11.40;99.90;;;;;;4898075;29;20052;-75
2023/01/04 12:10:49;;;;;;;19.25;12.25;;;11.50;99.90;;;;;;4897798;29;20031;-75
2023/01/04 12:13:15;;;;;;;22.05;11.30;;;11.50;99.90;;;;;;4897783;29;20025;-76
2023/01/04 12:16:02;;;;;;;20.58;12.27;;;11.50;99.90;;;;;;4897412;29;20114;-75
2023/01/04 12:18:35;;;;;;;18.55;11.48;;;11.50;99.90;;;;;;4896357;29;20033;-75
2023/01/04 12:21:01;;;;;;;21.38;13.63;;;11.50;99.90;;;;;;4887726;29;20567;-78
2023/01/04 12:23:28;;;;;;;22.58;14.25;;;11.60;99.90;;;;;;4897495;29;20041;-78
2023/01/04 12:25:55;;;;;;;19.58;13.35;;;11.60;99.90;;;;;;4897458;29;20064;-73
2023/01/04 12:28:34;;;;;;;26.08;13.98;;;11.60;99.90;;;;;;4896784;29;20025;-74
2023/01/04 12:31:19;;;;;;;20.63;12.18;;;11.60;99.90;;;;;;4897393;29;20055;-76
2023/01/04 12:33:48;;;;;;;21.15;12.15;;;11.70;99.90;;;;;;4897698;29;20388;-76
2023/01/04 12:36:15;;;;;;;20.45;11.73;;;11.60;99.90;;;;;;4879772;29;20385;-74
2023/01/04 12:39:01;;;;;;;17.55;11.30;;;11.60;99.90;;;;;;4897309;29;20120;-74
2023/01/04 12:41:33;;;;;;;19.73;12.05;;;11.60;99.90;;;;;;4896887;29;20112;-73
2023/01/04 12:44:00;;;;;;;19.90;12.17;;;11.70;99.90;;;;;;4896580;29;20091;-76
2023/01/04 12:49:25;;;;;;;20.77;12.43;;;11.70;99.90;;;;;;4897297;29;20100;-76
2023/01/04 12:52:09;;;;;;;19.95;10.60;;;11.60;99.90;;;;;;4897045;29;20036;-77
2023/01/04 12:54:48;;;;;;;20.33;11.35;;;11.60;99.90;;;;;;4896385;29;20025;-76
2023/01/04 12:57:15;;;;;;;17.35;10.55;;;11.60;99.90;;;;;;4895838;29;20036;-75
2023/01/04 13:00:13;;;;;;;22.35;13.02;;;11.60;99.90;;;;;;4896453;29;20041;-73
2023/01/04 13:02:50;;;;;;;21.15;10.57;;;11.60;99.90;;;;;;4890246;29;20029;-74
2023/01/04 13:05:16;;;;;;;18.27;11.15;;;11.60;99.90;;;;;;4897237;29;20047;-73
2023/01/04 13:07:49;;;;;;;20.95;11.85;;;11.50;99.90;;;;;;4896484;29;20044;-75
2023/01/04 13:10:36;;;;;;;22.23;13.27;;;11.60;99.90;;;;;;4896187;29;20123;-73
2023/01/04 13:13:20;;;;;;;21.23;11.77;;;11.60;99.90;;;;;;4896354;29;20032;-75
2023/01/04 13:16:29;;;;;;;19.45;11.27;;;11.60;99.90;;;;;;4896865;29;20028;-76
2023/01/04 13:18:57;;;;;;;19.42;12.40;;;11.50;99.90;;;;;;4896111;29;20537;-75
2023/01/04 13:21:27;;;;;;;18.05;12.13;;;11.60;99.90;;;;;;4896189;29;20107;-74
2023/01/04 13:23:56;;;;;;;19.73;11.80;;;11.60;99.90;;;;;;4895960;29;20076;-75
2023/01/04 13:26:28;;;;;;;21.77;12.25;;;11.60;99.90;;;;;;4896972;29;20027;-75
2023/01/04 13:29:22;;;;;;;18.30;10.23;;;11.50;99.90;;;;;;4885094;29;20024;-74
2023/01/04 13:31:56;;;;;;;20.50;10.75;;;11.50;99.90;;;;;;4895762;29;20032;-73
2023/01/04 13:34:26;;;;;;;20.85;11.82;;;11.50;99.90;;;;;;4896809;29;20056;-76
2023/01/04 13:36:58;;;;;;;21.15;11.73;;;11.50;99.90;;;;;;4897258;29;20391;-74
2023/01/04 13:39:24;;;;;;;17.13;10.68;;;11.60;99.90;;;;;;4896512;29;20032;-74
2023/01/04 13:41:51;;;;;;;17.65;10.60;;;11.60;99.90;;;;;;4896508;29;20081;-74
2023/01/04 13:45:00;;;;;;;14.20;8.85;;;11.50;99.90;;;;;;4895945;29;20088;-75
2023/01/04 13:47:28;;;;;;;14.48;9.18;;;11.40;99.90;;;;;;4857045;29;20042;-75
2023/01/04 13:49:54;;;;;;;19.35;9.90;;;11.50;99.90;;;;;;4856302;29;20108;-74